Helena — SCGL — position and weather

sailwx.info

Track history (hours):
 
Tides and Currents Weather Stations Pressure Air Temp Water Temp Dewpoint Dewpoint Depression Visibility Wind Speed Wind Dir Waves Ship Positions

Helena

Last reported at 2015-Mar-28 13:32 UTC. Time now 2015-Mar-28 18:50 UTC.
Position N 56°58' E 017°09'.

Length 169 m; draft 7.1 m.

Type: Cargo ship. MMSI: 265145000.

Date/timePositionNaut miles runAvg speedWind from/ knotsBaromVisibWave heightAir tempDewpointWater temp
2015-Mar-28 13:32N 56°58' E 017°09'1414.3
2015-Mar-28 12:33N 57°11' E 017°16'1414.0
2015-Mar-28 11:33N 57°25' E 017°23'1614.0
2015-Mar-28 10:25N 57°41' E 017°23'  
2015-Mar-24 05:30N 55°39' E 015°27'1617.0
2015-Mar-24 04:33N 55°31' E 015°02'1716.9
2015-Mar-24 03:33N 55°22' E 014°37'1717.1
2015-Mar-24 02:33N 55°09' E 014°17'1616.5
2015-Mar-24 01:33N 54°58' E 013°56'1716.9
2015-Mar-24 00:33N 54°53' E 013°28'1817.0
2015-Mar-23 23:29N 54°47' E 012°58'1516.3
2015-Mar-23 22:33N 54°40' E 012°35'1616.0
2015-Mar-23 21:33N 54°29' E 012°16'1616.0
2015-Mar-23 20:33N 54°21' E 011°52'1716.6
2015-Mar-23 19:33N 54°13' E 011°27'12 0.3
2015-Mar-22 07:16N 54°07' E 011°10'1014.6
2015-Mar-22 06:33N 54°13' E 011°24'1514.6
2015-Mar-22 05:33N 54°21' E 011°45'1414.3
2015-Mar-22 04:34N 54°26' E 012°08'1713.5
2015-Mar-22 03:19N 54°41' E 012°24'1114.3
2015-Mar-22 02:33N 54°46' E 012°40'1414.1
2015-Mar-22 01:33N 54°52' E 013°03'1414.5
2015-Mar-22 00:33N 54°56' E 013°26'2914.1
2015-Mar-21 22:28N 55°10' E 014°11'1414.6
2015-Mar-21 21:30N 55°21' E 014°27'1313.9
2015-Mar-21 20:33N 55°29' E 014°46'1413.9
2015-Mar-21 19:33N 55°36' E 015°07'10013.4
2015-Mar-21 12:03N 56°52' E 017°05'914.3
2015-Mar-21 11:24N 57°01' E 017°10'1214.2
2015-Mar-21 10:33N 57°12' E 017°17'1514.3
2015-Mar-21 09:30N 57°25' E 017°32'  
Track history (hours):
 
Tides and Currents Weather Stations Pressure Air Temp Water Temp Dewpoint Dewpoint Depression Visibility Wind Speed Wind Dir Waves Ship Positions

Helena

Last reported at 2015-Mar-28 13:32 UTC. Time now 2015-Mar-28 18:50 UTC.
Position N 56°58' E 017°09'.

Length 169 m; draft 7.1 m.

Type: Cargo ship. MMSI: 265145000.

Date/timePositionNaut miles runAvg speedWind from/ knotsBaromVisibWave heightAir tempDewpointWater temp
2015-Mar-28 13:32N 56°58' E 017°09'1414.3
2015-Mar-28 12:33N 57°11' E 017°16'1414.0
2015-Mar-28 11:33N 57°25' E 017°23'1614.0
2015-Mar-28 10:25N 57°41' E 017°23'  
2015-Mar-24 05:30N 55°39' E 015°27'1617.0
2015-Mar-24 04:33N 55°31' E 015°02'1716.9
2015-Mar-24 03:33N 55°22' E 014°37'1717.1
2015-Mar-24 02:33N 55°09' E 014°17'1616.5
2015-Mar-24 01:33N 54°58' E 013°56'1716.9
2015-Mar-24 00:33N 54°53' E 013°28'1817.0
2015-Mar-23 23:29N 54°47' E 012°58'1516.3
2015-Mar-23 22:33N 54°40' E 012°35'1616.0
2015-Mar-23 21:33N 54°29' E 012°16'1616.0
2015-Mar-23 20:33N 54°21' E 011°52'1716.6
2015-Mar-23 19:33N 54°13' E 011°27'12 0.3
2015-Mar-22 07:16N 54°07' E 011°10'1014.6
2015-Mar-22 06:33N 54°13' E 011°24'1514.6
2015-Mar-22 05:33N 54°21' E 011°45'1414.3
2015-Mar-22 04:34N 54°26' E 012°08'1713.5
2015-Mar-22 03:19N 54°41' E 012°24'1114.3
2015-Mar-22 02:33N 54°46' E 012°40'1414.1
2015-Mar-22 01:33N 54°52' E 013°03'1414.5
2015-Mar-22 00:33N 54°56' E 013°26'2914.1
2015-Mar-21 22:28N 55°10' E 014°11'1414.6
2015-Mar-21 21:30N 55°21' E 014°27'1313.9
2015-Mar-21 20:33N 55°29' E 014°46'1413.9
2015-Mar-21 19:33N 55°36' E 015°07'10013.4
2015-Mar-21 12:03N 56°52' E 017°05'914.3
2015-Mar-21 11:24N 57°01' E 017°10'1214.2
2015-Mar-21 10:33N 57°12' E 017°17'1514.3
2015-Mar-21 09:30N 57°25' E 017°32'  

Dump ship's entire track history